Time;durP1;ratioP1;P1;durP2;ratioP2;P2;SDS_P1;SDS_P2;PMS_P1;PMS_P2;Temp;Humidity;BMP_temperature;BMP_pressure;BME280_temperature;BME280_humidity;BME280_pressure;Samples;Min_cycle;Max_cycle;Signal;HPM_P1;HPM_P2
2021/06/29 00:01:21;;;;;;;;;;;21.10;60.80;;;;;;477845;249;1204;-46
2021/06/29 00:03:23;;;;;;;;;;;21.10;60.70;;;;;;477577;250;1041;-46
2021/06/29 00:05:24;;;;;;;;;;;21.10;60.80;;;;;;478033;249;1169;-46
2021/06/29 00:07:25;;;;;;;;;;;21.10;60.70;;;;;;477810;249;1301;-46
2021/06/29 00:09:27;;;;;;;;;;;21.10;60.80;;;;;;478085;249;2207;-46
2021/06/29 00:11:28;;;;;;;;;;;21.10;60.80;;;;;;477569;250;1213;-46
2021/06/29 00:13:29;;;;;;;;;;;21.10;60.80;;;;;;477665;250;1105;-46
2021/06/29 00:15:31;;;;;;;;;;;21.10;60.80;;;;;;477805;249;1076;-46
2021/06/29 00:17:32;;;;;;;;;;;21.10;60.80;;;;;;478041;249;1246;-46
2021/06/29 00:19:33;;;;;;;;;;;21.10;60.80;;;;;;477800;249;1060;-46
2021/06/29 00:21:35;;;;;;;;;;;21.10;60.80;;;;;;477848;249;1237;-46
2021/06/29 00:23:38;;;;;;;;;;;21.10;60.80;;;;;;477629;249;1174;-46
2021/06/29 00:25:39;;;;;;;;;;;21.10;60.80;;;;;;477762;249;1075;-46
2021/06/29 00:27:41;;;;;;;;;;;21.10;60.80;;;;;;477574;250;1211;-46
2021/06/29 00:29:42;;;;;;;;;;;21.10;60.80;;;;;;477866;249;2211;-46
2021/06/29 00:31:43;;;;;;;;;;;21.10;60.80;;;;;;477654;249;1260;-46
2021/06/29 00:33:45;;;;;;;;;;;21.10;60.80;;;;;;478035;249;1097;-46
2021/06/29 00:35:46;;;;;;;;;;;21.10;60.80;;;;;;478001;249;1166;-46
2021/06/29 00:37:47;;;;;;;;;;;21.10;60.80;;;;;;477846;249;1332;-46
2021/06/29 00:39:48;;;;;;;;;;;21.10;60.80;;;;;;477632;250;1071;-46
2021/06/29 00:41:50;;;;;;;;;;;21.10;60.80;;;;;;477575;246;1226;-46
2021/06/29 00:43:51;;;;;;;;;;;21.10;60.80;;;;;;477883;249;1059;-46
2021/06/29 00:45:52;;;;;;;;;;;21.10;60.80;;;;;;477695;249;1416;-46
2021/06/29 00:47:54;;;;;;;;;;;21.10;60.80;;;;;;477623;250;1162;-46
2021/06/29 00:49:55;;;;;;;;;;;21.10;60.70;;;;;;477990;249;2195;-46
2021/06/29 00:51:57;;;;;;;;;;;21.10;60.80;;;;;;477823;249;1166;-46
2021/06/29 00:53:58;;;;;;;;;;;21.10;60.80;;;;;;477593;249;1208;-46
2021/06/29 00:55:59;;;;;;;;;;;21.10;60.80;;;;;;477637;249;1170;-46
2021/06/29 00:58:00;;;;;;;;;;;21.10;60.80;;;;;;477879;249;1060;-46
2021/06/29 01:00:02;;;;;;;;;;;21.10;60.80;;;;;;477940;249;973;-46
2021/06/29 01:02:03;;;;;;;;;;;21.10;60.80;;;;;;477596;250;1071;-46
2021/06/29 01:04:04;;;;;;;;;;;21.10;60.80;;;;;;477989;249;1082;-46
2021/06/29 01:06:06;;;;;;;;;;;21.10;60.80;;;;;;477614;250;1173;-46
2021/06/29 01:08:07;;;;;;;;;;;21.10;60.80;;;;;;477892;249;1310;-46
2021/06/29 01:10:08;;;;;;;;;;;21.10;60.80;;;;;;477729;249;2156;-46
2021/06/29 01:12:10;;;;;;;;;;;21.10;60.80;;;;;;477608;249;1481;-46
2021/06/29 01:14:11;;;;;;;;;;;21.10;60.80;;;;;;478015;249;1098;-46
2021/06/29 01:16:13;;;;;;;;;;;21.10;60.80;;;;;;477862;249;1484;-46
2021/06/29 01:18:14;;;;;;;;;;;21.10;60.80;;;;;;477601;250;1188;-46
2021/06/29 01:20:20;;;;;;;;;;;21.10;60.80;;;;;;477918;249;980;-46
2021/06/29 01:22:17;;;;;;;;;;;21.10;60.80;;;;;;477574;249;2340;-46
2021/06/29 01:24:22;;;;;;;;;;;21.10;60.80;;;;;;477601;250;2240;-46
2021/06/29 01:26:21;;;;;;;;;;;21.10;60.80;;;;;;477787;249;2168;-46
2021/06/29 01:28:25;;;;;;;;;;;21.10;60.80;;;;;;477678;249;1845;-46
2021/06/29 01:32:42;;;;;;;;;;;21.10;60.80;;;;;;477900;249;1100;-46
2021/06/29 01:34:44;;;;;;;;;;;21.10;60.80;;;;;;478029;249;1076;-46
2021/06/29 01:36:45;;;;;;;;;;;21.10;60.80;;;;;;477717;249;1142;-46
2021/06/29 01:38:46;;;;;;;;;;;21.10;60.80;;;;;;477656;249;1214;-46
2021/06/29 01:40:48;;;;;;;;;;;21.10;60.80;;;;;;477637;250;1196;-46
2021/06/29 01:42:49;;;;;;;;;;;21.10;60.80;;;;;;477633;250;1076;-46
2021/06/29 01:44:50;;;;;;;;;;;21.10;60.90;;;;;;477712;249;1247;-46
2021/06/29 01:46:54;;;;;;;;;;;21.10;60.80;;;;;;477881;249;1099;-46
2021/06/29 01:48:53;;;;;;;;;;;21.10;60.90;;;;;;477578;249;2259;-46
2021/06/29 01:50:54;;;;;;;;;;;21.10;60.90;;;;;;477638;250;2203;-46
2021/06/29 01:52:56;;;;;;;;;;;21.10;60.90;;;;;;477990;249;1149;-46
2021/06/29 01:54:57;;;;;;;;;;;21.10;60.90;;;;;;477700;249;1194;-46
2021/06/29 01:56:58;;;;;;;;;;;21.10;60.90;;;;;;477603;250;1072;-46
2021/06/29 01:59:03;;;;;;;;;;;21.10;60.90;;;;;;477698;249;1055;-46
2021/06/29 02:01:01;;;;;;;;;;;21.10;60.80;;;;;;477618;249;1463;-46
2021/06/29 02:03:03;;;;;;;;;;;21.10;60.90;;;;;;477759;246;1237;-46
2021/06/29 02:05:04;;;;;;;;;;;21.10;60.80;;;;;;477626;249;2251;-46
2021/06/29 02:07:05;;;;;;;;;;;21.10;60.80;;;;;;477693;249;1093;-46
2021/06/29 02:09:06;;;;;;;;;;;21.10;60.80;;;;;;477693;249;1115;-46
2021/06/29 02:11:08;;;;;;;;;;;21.10;60.80;;;;;;477925;249;2195;-45
2021/06/29 02:13:09;;;;;;;;;;;21.10;60.80;;;;;;477972;249;1303;-46
2021/06/29 02:15:10;;;;;;;;;;;21.10;60.80;;;;;;478024;249;1059;-46
2021/06/29 02:17:12;;;;;;;;;;;21.10;60.80;;;;;;478044;249;1161;-46
2021/06/29 02:19:13;;;;;;;;;;;21.10;60.80;;;;;;477994;249;1559;-46
2021/06/29 02:21:15;;;;;;;;;;;21.10;60.70;;;;;;477591;249;1494;-46
2021/06/29 02:23:16;;;;;;;;;;;21.10;60.80;;;;;;477560;249;2364;-46
2021/06/29 02:25:17;;;;;;;;;;;21.10;60.80;;;;;;477680;249;1165;-46
2021/06/29 02:27:18;;;;;;;;;;;21.10;60.80;;;;;;477693;249;1085;-46
2021/06/29 02:29:20;;;;;;;;;;;21.10;60.80;;;;;;477776;249;1055;-46
2021/06/29 02:31:21;;;;;;;;;;;21.10;60.80;;;;;;477999;249;2144;-46
2021/06/29 02:33:22;;;;;;;;;;;21.10;60.80;;;;;;477697;249;1134;-46
2021/06/29 02:35:24;;;;;;;;;;;21.10;60.80;;;;;;477610;250;1220;-46
2021/06/29 02:37:26;;;;;;;;;;;21.10;60.80;;;;;;478000;249;1227;-46
2021/06/29 02:39:27;;;;;;;;;;;21.10;60.80;;;;;;477603;250;1202;-46
2021/06/29 02:41:28;;;;;;;;;;;21.10;60.80;;;;;;478010;249;1241;-46
2021/06/29 02:43:30;;;;;;;;;;;21.10;60.80;;;;;;478045;249;1144;-46
2021/06/29 02:45:31;;;;;;;;;;;21.10;60.80;;;;;;477804;249;1131;-46
2021/06/29 02:47:32;;;;;;;;;;;21.10;60.80;;;;;;477661;249;1223;-46
2021/06/29 02:49:34;;;;;;;;;;;21.10;60.80;;;;;;477576;250;1037;-46
2021/06/29 02:51:36;;;;;;;;;;;21.10;60.80;;;;;;477684;249;2132;-46
2021/06/29 02:53:36;;;;;;;;;;;21.10;60.80;;;;;;477960;249;2197;-46
2021/06/29 02:55:38;;;;;;;;;;;21.10;60.80;;;;;;477764;249;1223;-46
2021/06/29 02:57:39;;;;;;;;;;;21.10;60.90;;;;;;477675;249;1190;-46
2021/06/29 02:59:40;;;;;;;;;;;21.10;60.90;;;;;;477618;250;1153;-46
2021/06/29 03:01:42;;;;;;;;;;;21.10;60.90;;;;;;477620;249;1091;-46
2021/06/29 03:03:43;;;;;;;;;;;21.10;60.80;;;;;;477630;250;1207;-46
2021/06/29 03:05:44;;;;;;;;;;;21.10;60.80;;;;;;477644;250;1071;-46
2021/06/29 03:07:46;;;;;;;;;;;21.10;60.80;;;;;;477651;250;1360;-46
2021/06/29 03:09:47;;;;;;;;;;;21.10;60.80;;;;;;477638;250;1392;-46
2021/06/29 03:11:48;;;;;;;;;;;21.10;60.80;;;;;;477717;249;2222;-46
2021/06/29 03:13:50;;;;;;;;;;;21.10;60.80;;;;;;477953;249;1188;-46
2021/06/29 03:15:51;;;;;;;;;;;21.10;60.80;;;;;;477658;250;1006;-46
2021/06/29 03:17:52;;;;;;;;;;;21.10;60.80;;;;;;477635;249;1223;-46
2021/06/29 03:19:54;;;;;;;;;;;21.10;60.80;;;;;;478067;249;1055;-46
2021/06/29 03:21:55;;;;;;;;;;;21.10;60.80;;;;;;477753;249;1278;-46
2021/06/29 03:23:56;;;;;;;;;;;21.10;60.80;;;;;;477691;249;1308;-46
2021/06/29 03:25:57;;;;;;;;;;;21.10;60.80;;;;;;477635;249;1195;-46
2021/06/29 03:27:59;;;;;;;;;;;21.10;60.80;;;;;;477844;249;1305;-46
2021/06/29 03:30:00;;;;;;;;;;;21.10;60.80;;;;;;477908;249;1027;-46
2021/06/29 03:32:01;;;;;;;;;;;21.10;60.80;;;;;;477748;249;2183;-46
2021/06/29 03:34:03;;;;;;;;;;;21.10;60.80;;;;;;477582;250;1138;-46
2021/06/29 03:36:04;;;;;;;;;;;21.10;60.80;;;;;;477951;249;1230;-46
2021/06/29 03:38:05;;;;;;;;;;;21.10;60.80;;;;;;478029;249;1435;-46
2021/06/29 03:40:07;;;;;;;;;;;21.10;60.80;;;;;;477915;249;1155;-46
2021/06/29 03:42:08;;;;;;;;;;;21.10;60.80;;;;;;477910;249;1254;-46
2021/06/29 03:44:09;;;;;;;;;;;21.10;60.80;;;;;;477647;249;1078;-46
2021/06/29 03:46:11;;;;;;;;;;;21.10;60.80;;;;;;477629;250;1165;-46
2021/06/29 03:48:12;;;;;;;;;;;21.10;60.90;;;;;;477987;249;1091;-46
2021/06/29 03:50:15;;;;;;;;;;;21.10;60.80;;;;;;478067;249;1090;-46
2021/06/29 03:52:17;;;;;;;;;;;21.10;60.80;;;;;;477522;250;1299;-46
2021/06/29 03:54:18;;;;;;;;;;;21.10;60.90;;;;;;477805;249;1058;-46
2021/06/29 03:56:29;;;;;;;;;;;21.20;60.80;;;;;;477584;250;1536;-46
2021/06/29 03:58:29;;;;;;;;;;;21.10;60.80;;;;;;478066;249;1407;-46
2021/06/29 04:00:31;;;;;;;;;;;21.10;60.80;;;;;;477829;249;1070;-46
2021/06/29 04:02:32;;;;;;;;;;;21.10;60.80;;;;;;477646;249;1311;-46
2021/06/29 04:04:33;;;;;;;;;;;21.20;60.80;;;;;;477640;250;1035;-46
2021/06/29 04:06:35;;;;;;;;;;;21.10;60.80;;;;;;478033;249;1273;-46
2021/06/29 04:08:36;;;;;;;;;;;21.10;60.80;;;;;;477795;249;1078;-46
2021/06/29 04:10:37;;;;;;;;;;;21.10;60.80;;;;;;477573;250;2167;-46
2021/06/29 04:12:39;;;;;;;;;;;21.10;60.80;;;;;;477553;250;1081;-46
2021/06/29 04:14:40;;;;;;;;;;;21.10;60.80;;;;;;477612;250;1027;-46
2021/06/29 04:16:42;;;;;;;;;;;21.10;60.80;;;;;;477774;249;1058;-46
2021/06/29 04:18:43;;;;;;;;;;;21.10;60.80;;;;;;478028;249;1139;-46
2021/06/29 04:20:44;;;;;;;;;;;21.10;60.80;;;;;;477463;250;1224;-46
2021/06/29 04:22:45;;;;;;;;;;;21.10;60.80;;;;;;477490;249;1557;-46
2021/06/29 04:24:47;;;;;;;;;;;21.10;60.80;;;;;;477441;250;1089;-46
2021/06/29 04:26:48;;;;;;;;;;;21.20;60.80;;;;;;477566;249;1206;-46
2021/06/29 04:28:49;;;;;;;;;;;21.20;60.80;;;;;;477793;249;1048;-46
2021/06/29 04:30:51;;;;;;;;;;;21.10;60.70;;;;;;477500;250;2191;-46
2021/06/29 04:32:52;;;;;;;;;;;21.20;60.90;;;;;;477730;249;1117;-46
2021/06/29 04:34:53;;;;;;;;;;;21.20;60.90;;;;;;477693;249;1081;-46
2021/06/29 04:36:55;;;;;;;;;;;21.10;60.80;;;;;;477374;250;1189;-46
2021/06/29 04:38:56;;;;;;;;;;;21.10;60.80;;;;;;477607;249;1038;-46
2021/06/29 04:40:57;;;;;;;;;;;21.10;60.90;;;;;;477412;250;1333;-46
2021/06/29 04:42:59;;;;;;;;;;;21.10;60.90;;;;;;477467;249;1181;-46
2021/06/29 04:45:00;;;;;;;;;;;21.10;60.90;;;;;;477541;249;1093;-46
2021/06/29 04:47:01;;;;;;;;;;;21.10;60.80;;;;;;477354;250;1204;-46
2021/06/29 04:49:03;;;;;;;;;;;21.10;60.80;;;;;;477446;249;1056;-46
2021/06/29 04:51:04;;;;;;;;;;;21.10;60.80;;;;;;477425;250;2208;-46
2021/06/29 04:53:05;;;;;;;;;;;21.10;60.80;;;;;;477676;249;1100;-46
2021/06/29 04:55:07;;;;;;;;;;;21.10;60.80;;;;;;477490;249;1081;-46
2021/06/29 04:57:08;;;;;;;;;;;21.10;60.80;;;;;;477416;250;1157;-46
2021/06/29 04:59:09;;;;;;;;;;;21.10;60.80;;;;;;477656;249;1031;-46
2021/06/29 05:01:11;;;;;;;;;;;21.10;60.80;;;;;;477551;249;1268;-46
2021/06/29 05:03:12;;;;;;;;;;;21.10;60.80;;;;;;477396;250;1117;-46
2021/06/29 05:05:14;;;;;;;;;;;21.10;60.80;;;;;;477340;250;1121;-46
2021/06/29 05:07:15;;;;;;;;;;;21.10;60.80;;;;;;477291;249;1172;-46
2021/06/29 05:09:16;;;;;;;;;;;21.20;60.90;;;;;;477283;250;1117;-46
2021/06/29 05:11:18;;;;;;;;;;;21.10;60.80;;;;;;477498;249;2179;-46
2021/06/29 05:13:19;;;;;;;;;;;21.10;60.90;;;;;;477469;250;1270;-46
2021/06/29 05:15:20;;;;;;;;;;;21.10;60.90;;;;;;477531;249;1194;-46
2021/06/29 05:17:22;;;;;;;;;;;21.10;61.00;;;;;;477330;249;1220;-46
2021/06/29 05:19:23;;;;;;;;;;;21.10;61.00;;;;;;477284;250;1234;-46
2021/06/29 05:21:24;;;;;;;;;;;21.10;61.00;;;;;;477324;249;1256;-46
2021/06/29 05:23:26;;;;;;;;;;;21.10;60.90;;;;;;477312;250;1242;-46
2021/06/29 05:25:28;;;;;;;;;;;21.10;60.80;;;;;;477667;249;1185;-46
2021/06/29 05:27:28;;;;;;;;;;;21.10;60.90;;;;;;477261;250;2153;-46
2021/06/29 05:29:30;;;;;;;;;;;21.10;60.90;;;;;;477399;250;1062;-46
2021/06/29 05:31:31;;;;;;;;;;;21.10;60.90;;;;;;477296;249;2148;-46
2021/06/29 05:33:32;;;;;;;;;;;21.10;60.90;;;;;;477382;249;1225;-46
2021/06/29 05:35:34;;;;;;;;;;;21.10;60.90;;;;;;477223;250;1259;-46
2021/06/29 05:37:35;;;;;;;;;;;21.10;60.90;;;;;;477207;250;1546;-46
2021/06/29 05:39:36;;;;;;;;;;;21.10;60.80;;;;;;477445;249;1344;-46
2021/06/29 05:41:37;;;;;;;;;;;21.10;60.90;;;;;;477257;250;1762;-46
2021/06/29 05:43:39;;;;;;;;;;;21.10;60.90;;;;;;477771;249;1117;-46
2021/06/29 05:45:40;;;;;;;;;;;21.10;60.80;;;;;;477231;250;1105;-46
2021/06/29 05:47:42;;;;;;;;;;;21.10;60.90;;;;;;477318;249;1215;-46
2021/06/29 05:49:43;;;;;;;;;;;21.10;60.80;;;;;;477387;249;2389;-46
2021/06/29 05:51:47;;;;;;;;;;;21.10;60.90;;;;;;477428;245;2195;-46
2021/06/29 05:53:45;;;;;;;;;;;21.10;60.90;;;;;;477286;249;1527;-46
2021/06/29 05:55:47;;;;;;;;;;;21.10;60.90;;;;;;477263;249;1173;-46
2021/06/29 05:57:48;;;;;;;;;;;21.10;60.90;;;;;;477176;250;1188;-46
2021/06/29 05:59:50;;;;;;;;;;;21.10;61.00;;;;;;477333;249;1096;-46
2021/06/29 06:01:52;;;;;;;;;;;21.10;60.90;;;;;;477143;250;1506;-46
2021/06/29 06:03:53;;;;;;;;;;;21.10;60.80;;;;;;476971;250;1809;-46
2021/06/29 06:05:54;;;;;;;;;;;21.10;60.80;;;;;;477093;250;1228;-46
2021/06/29 06:07:56;;;;;;;;;;;21.10;60.90;;;;;;477166;249;1137;-45
2021/06/29 06:09:57;;;;;;;;;;;21.20;60.90;;;;;;477323;249;1216;-46
2021/06/29 06:11:58;;;;;;;;;;;21.10;60.80;;;;;;477232;249;2203;-46
2021/06/29 06:14:00;;;;;;;;;;;21.10;61.00;;;;;;477086;250;1172;-46
2021/06/29 06:16:02;;;;;;;;;;;21.10;60.90;;;;;;477194;249;1286;-46
2021/06/29 06:18:02;;;;;;;;;;;21.10;60.90;;;;;;477158;249;2471;-46
2021/06/29 06:20:04;;;;;;;;;;;21.10;60.80;;;;;;477101;249;1069;-46
2021/06/29 06:22:05;;;;;;;;;;;21.20;60.90;;;;;;477114;249;1084;-46
2021/06/29 06:24:06;;;;;;;;;;;21.10;60.90;;;;;;477072;250;1166;-46
2021/06/29 06:26:08;;;;;;;;;;;21.10;60.90;;;;;;477068;250;1066;-46
2021/06/29 06:28:09;;;;;;;;;;;21.20;60.90;;;;;;477062;250;1202;-46
2021/06/29 06:30:10;;;;;;;;;;;21.20;60.90;;;;;;477073;250;1165;-46
2021/06/29 06:32:12;;;;;;;;;;;21.10;60.80;;;;;;477304;249;2198;-46
2021/06/29 06:34:13;;;;;;;;;;;21.10;60.90;;;;;;477130;249;1662;-46
2021/06/29 06:36:14;;;;;;;;;;;21.20;60.90;;;;;;477108;250;1171;-46
2021/06/29 06:38:15;;;;;;;;;;;21.20;60.90;;;;;;477105;249;1092;-46
2021/06/29 06:40:17;;;;;;;;;;;21.10;60.80;;;;;;477152;250;1156;-46
2021/06/29 06:42:18;;;;;;;;;;;21.20;60.90;;;;;;477026;250;1380;-46
2021/06/29 06:44:19;;;;;;;;;;;21.20;60.90;;;;;;477015;250;1268;-46
2021/06/29 06:46:21;;;;;;;;;;;21.20;60.90;;;;;;476915;250;1100;-46
2021/06/29 06:48:22;;;;;;;;;;;21.20;60.90;;;;;;476923;249;1169;-46
2021/06/29 06:50:23;;;;;;;;;;;21.20;60.90;;;;;;476834;250;1410;-46
2021/06/29 06:52:25;;;;;;;;;;;21.10;60.80;;;;;;476932;249;2151;-46
2021/06/29 06:54:26;;;;;;;;;;;21.10;60.90;;;;;;476920;250;1199;-46
2021/06/29 06:56:27;;;;;;;;;;;21.10;60.90;;;;;;476958;249;1219;-46
2021/06/29 06:58:29;;;;;;;;;;;21.20;61.00;;;;;;476749;250;1200;-46
2021/06/29 07:00:30;;;;;;;;;;;21.20;60.80;;;;;;476937;249;1184;-46
2021/06/29 07:02:31;;;;;;;;;;;21.20;60.80;;;;;;477014;249;1081;-46
2021/06/29 07:04:33;;;;;;;;;;;21.20;60.90;;;;;;477069;249;1193;-46
2021/06/29 07:06:34;;;;;;;;;;;21.20;60.90;;;;;;476993;249;1098;-43
2021/06/29 07:08:35;;;;;;;;;;;21.20;60.90;;;;;;477222;249;1167;-44
2021/06/29 07:10:37;;;;;;;;;;;21.20;60.70;;;;;;476960;249;1140;-44
2021/06/29 07:12:38;;;;;;;;;;;21.30;60.60;;;;;;476840;250;2198;-44
2021/06/29 07:14:39;;;;;;;;;;;21.30;60.60;;;;;;476846;249;1095;-44
2021/06/29 07:16:41;;;;;;;;;;;21.30;60.60;;;;;;476870;249;1145;-44
2021/06/29 07:18:42;;;;;;;;;;;21.30;60.40;;;;;;476971;249;1227;-43
2021/06/29 07:20:44;;;;;;;;;;;21.30;60.50;;;;;;477435;249;883;-44
2021/06/29 07:22:45;;;;;;;;;;;21.30;60.50;;;;;;477255;249;792;-44
2021/06/29 07:24:46;;;;;;;;;;;21.30;60.30;;;;;;476843;250;793;-44
2021/06/29 07:26:48;;;;;;;;;;;21.30;60.40;;;;;;476748;250;1261;-44
2021/06/29 07:28:49;;;;;;;;;;;21.30;60.40;;;;;;477074;249;1148;-44
2021/06/29 07:30:50;;;;;;;;;;;21.30;60.50;;;;;;476899;250;814;-44
2021/06/29 07:32:53;;;;;;;;;;;21.30;60.50;;;;;;476852;250;2301;-44
2021/06/29 07:34:53;;;;;;;;;;;21.30;60.60;;;;;;476980;249;2139;-44
2021/06/29 07:36:55;;;;;;;;;;;21.30;60.60;;;;;;476832;246;1217;-44
2021/06/29 07:38:56;;;;;;;;;;;21.20;60.70;;;;;;476898;249;1102;-44
2021/06/29 07:40:58;;;;;;;;;;;21.20;60.70;;;;;;476979;249;1226;-44
2021/06/29 07:42:59;;;;;;;;;;;21.30;60.70;;;;;;476648;250;1208;-44
2021/06/29 07:45:00;;;;;;;;;;;21.30;60.70;;;;;;476649;249;1105;-44
2021/06/29 07:47:02;;;;;;;;;;;21.30;60.70;;;;;;476681;249;1100;-44
2021/06/29 07:49:03;;;;;;;;;;;21.30;60.60;;;;;;476719;249;1105;-44
2021/06/29 07:51:05;;;;;;;;;;;21.30;60.60;;;;;;476775;250;1116;-44
2021/06/29 07:53:06;;;;;;;;;;;21.30;60.60;;;;;;476955;249;2200;-44
2021/06/29 07:55:07;;;;;;;;;;;21.30;60.60;;;;;;476967;249;1082;-44
2021/06/29 07:57:08;;;;;;;;;;;21.30;60.60;;;;;;476913;250;1128;-44
2021/06/29 07:59:10;;;;;;;;;;;21.30;60.60;;;;;;476906;250;1302;-44
2021/06/29 08:01:11;;;;;;;;;;;21.30;60.60;;;;;;476974;250;1245;-44
2021/06/29 08:03:12;;;;;;;;;;;21.30;60.60;;;;;;476928;249;1256;-43
2021/06/29 08:05:14;;;;;;;;;;;21.30;60.50;;;;;;476863;249;1197;-46
2021/06/29 08:07:15;;;;;;;;;;;21.30;60.60;;;;;;476732;250;1198;-46
2021/06/29 08:09:16;;;;;;;;;;;21.20;60.80;;;;;;476708;250;1130;-46
2021/06/29 08:11:18;;;;;;;;;;;21.20;60.90;;;;;;476748;250;1204;-46
2021/06/29 08:13:19;;;;;;;;;;;21.20;60.90;;;;;;476652;250;2199;-46
2021/06/29 08:15:20;;;;;;;;;;;21.20;60.90;;;;;;476682;249;1099;-46
2021/06/29 08:17:22;;;;;;;;;;;21.20;61.00;;;;;;476526;250;1180;-46
2021/06/29 08:19:23;;;;;;;;;;;21.20;60.90;;;;;;476575;250;1107;-46
2021/06/29 08:21:24;;;;;;;;;;;21.20;60.90;;;;;;476597;249;1460;-46
2021/06/29 08:23:26;;;;;;;;;;;21.20;60.80;;;;;;476679;250;1079;-46
2021/06/29 08:25:28;;;;;;;;;;;21.20;61.00;;;;;;476627;249;1106;-46
2021/06/29 08:27:28;;;;;;;;;;;21.20;61.00;;;;;;476859;249;1801;-46
2021/06/29 08:29:29;;;;;;;;;;;21.20;60.90;;;;;;476952;249;1204;-46
2021/06/29 08:31:31;;;;;;;;;;;21.20;60.80;;;;;;476687;249;1209;-46
2021/06/29 08:33:32;;;;;;;;;;;21.20;60.90;;;;;;476613;249;2198;-46
2021/06/29 08:35:33;;;;;;;;;;;21.20;60.90;;;;;;476661;250;1105;-46
2021/06/29 08:37:35;;;;;;;;;;;21.20;60.90;;;;;;476718;250;1347;-46
2021/06/29 08:39:36;;;;;;;;;;;21.20;60.80;;;;;;476777;250;1088;-46
2021/06/29 08:41:37;;;;;;;;;;;21.20;60.90;;;;;;476788;249;1076;-46
2021/06/29 08:43:39;;;;;;;;;;;21.20;60.90;;;;;;476811;249;1203;-46
2021/06/29 08:45:40;;;;;;;;;;;21.20;60.90;;;;;;476984;249;1131;-46
2021/06/29 08:47:41;;;;;;;;;;;21.20;60.90;;;;;;476850;249;1084;-46
2021/06/29 08:49:43;;;;;;;;;;;21.20;60.80;;;;;;476914;249;1068;-46
2021/06/29 08:51:44;;;;;;;;;;;21.20;60.90;;;;;;476806;250;1146;-46
2021/06/29 08:53:45;;;;;;;;;;;21.20;60.90;;;;;;476937;249;2124;-46
2021/06/29 08:55:47;;;;;;;;;;;21.20;60.90;;;;;;476942;250;1115;-46
2021/06/29 08:57:48;;;;;;;;;;;21.30;60.90;;;;;;476706;250;1068;-46
2021/06/29 08:59:49;;;;;;;;;;;21.20;60.90;;;;;;476636;250;1260;-46
2021/06/29 09:01:51;;;;;;;;;;;21.20;60.90;;;;;;476785;250;1090;-46
2021/06/29 09:03:52;;;;;;;;;;;21.20;60.90;;;;;;476905;249;1199;-46
2021/06/29 09:05:53;;;;;;;;;;;21.20;61.00;;;;;;476923;249;1296;-46
2021/06/29 09:07:55;;;;;;;;;;;21.20;60.90;;;;;;476814;250;1098;-46
2021/06/29 09:09:56;;;;;;;;;;;21.20;61.00;;;;;;476837;250;1271;-46
2021/06/29 09:11:57;;;;;;;;;;;21.20;61.00;;;;;;476908;250;1171;-46
2021/06/29 09:13:59;;;;;;;;;;;21.20;61.00;;;;;;477025;249;2147;-46
2021/06/29 09:16:00;;;;;;;;;;;21.20;61.00;;;;;;476997;249;1088;-46
2021/06/29 09:18:01;;;;;;;;;;;21.20;60.90;;;;;;476743;250;1241;-46
2021/06/29 09:20:03;;;;;;;;;;;21.30;61.00;;;;;;476695;249;1239;-46
2021/06/29 09:22:04;;;;;;;;;;;21.30;60.90;;;;;;476851;249;1326;-46
2021/06/29 09:24:06;;;;;;;;;;;21.30;61.00;;;;;;476830;250;1072;-46
2021/06/29 09:26:07;;;;;;;;;;;21.20;61.00;;;;;;476752;249;1425;-46
2021/06/29 09:28:08;;;;;;;;;;;21.30;60.90;;;;;;476902;249;1067;-46
2021/06/29 09:30:10;;;;;;;;;;;21.20;61.00;;;;;;476864;250;1311;-46
2021/06/29 09:32:11;;;;;;;;;;;21.20;61.00;;;;;;476955;249;1117;-46
2021/06/29 09:34:12;;;;;;;;;;;21.20;60.90;;;;;;476905;250;2195;-46
2021/06/29 09:36:14;;;;;;;;;;;21.20;60.90;;;;;;476805;249;1430;-46
2021/06/29 09:38:19;;;;;;;;;;;21.20;61.00;;;;;;476836;250;1144;-46
2021/06/29 09:40:18;;;;;;;;;;;21.20;61.00;;;;;;476833;249;1368;-46
2021/06/29 09:42:18;;;;;;;;;;;21.20;61.00;;;;;;476801;249;2036;-46
2021/06/29 09:44:23;;;;;;;;;;;21.30;61.00;;;;;;476932;250;1192;-46
2021/06/29 09:46:21;;;;;;;;;;;21.20;61.00;;;;;;477218;249;2180;-46
2021/06/29 09:48:22;;;;;;;;;;;21.20;60.90;;;;;;476854;249;1115;-46
2021/06/29 09:50:25;;;;;;;;;;;21.20;61.00;;;;;;476890;249;1431;-46
2021/06/29 09:52:25;;;;;;;;;;;21.20;61.00;;;;;;476813;249;2256;-46
2021/06/29 09:54:26;;;;;;;;;;;21.20;61.10;;;;;;476815;250;1098;-46
2021/06/29 09:56:29;;;;;;;;;;;21.20;61.00;;;;;;476863;249;1195;-46
2021/06/29 09:58:29;;;;;;;;;;;21.20;61.10;;;;;;477360;249;1271;-46
2021/06/29 10:00:30;;;;;;;;;;;21.20;61.10;;;;;;476943;249;1816;-46
2021/06/29 10:02:31;;;;;;;;;;;21.20;61.00;;;;;;476942;249;1188;-43
2021/06/29 10:04:33;;;;;;;;;;;21.30;61.00;;;;;;477000;249;1090;-46
2021/06/29 10:06:34;;;;;;;;;;;21.30;61.00;;;;;;476773;250;1366;-46
2021/06/29 10:08:35;;;;;;;;;;;21.30;61.10;;;;;;477003;249;1399;-46
2021/06/29 10:10:37;;;;;;;;;;;21.30;61.10;;;;;;476738;249;1112;-46
2021/06/29 10:12:38;;;;;;;;;;;21.30;61.10;;;;;;476942;249;2140;-46
2021/06/29 10:14:39;;;;;;;;;;;21.30;61.10;;;;;;476956;249;1184;-46
2021/06/29 10:16:42;;;;;;;;;;;21.20;61.10;;;;;;476845;249;1311;-46
2021/06/29 10:18:47;;;;;;;;;;;21.30;61.20;;;;;;476789;249;2226;-46
2021/06/29 10:20:52;;;;;;;;;;;21.30;61.10;;;;;;475973;250;1972;-46
2021/06/29 10:22:54;;;;;;;;;;;21.20;61.20;;;;;;476011;249;2221;-45
2021/06/29 10:24:54;;;;;;;;;;;21.20;61.10;;;;;;459840;254;2333;-46
2021/06/29 10:26:56;;;;;;;;;;;21.30;61.10;;;;;;467650;251;1175;-46
2021/06/29 10:28:57;;;;;;;;;;;21.20;61.10;;;;;;466820;255;1037;-46
2021/06/29 10:30:58;;;;;;;;;;;21.20;61.20;;;;;;469291;253;1188;-46
2021/06/29 10:33:01;;;;;;;;;;;21.20;61.20;;;;;;461293;257;2204;-46
2021/06/29 10:35:01;;;;;;;;;;;21.30;61.10;;;;;;469488;253;1849;-46
2021/06/29 10:37:02;;;;;;;;;;;21.20;61.10;;;;;;469126;253;1134;-46
2021/06/29 10:39:04;;;;;;;;;;;21.20;61.10;;;;;;460933;258;1140;-46
2021/06/29 10:41:06;;;;;;;;;;;21.30;61.20;;;;;;468998;253;1161;-46
2021/06/29 10:43:07;;;;;;;;;;;21.20;61.20;;;;;;468938;253;1246;-46
2021/06/29 10:45:08;;;;;;;;;;;21.20;61.20;;;;;;460690;258;1168;-46
2021/06/29 10:47:09;;;;;;;;;;;21.30;61.20;;;;;;468853;253;1245;-46
2021/06/29 10:49:11;;;;;;;;;;;21.20;61.20;;;;;;469021;253;1106;-46
2021/06/29 10:51:12;;;;;;;;;;;21.30;61.10;;;;;;460869;258;1248;-46
2021/06/29 10:53:13;;;;;;;;;;;21.30;61.10;;;;;;469060;253;2191;-46
2021/06/29 10:55:15;;;;;;;;;;;21.30;61.10;;;;;;468969;253;1111;-46
2021/06/29 10:57:16;;;;;;;;;;;21.30;61.20;;;;;;460761;258;1433;-46
2021/06/29 10:59:18;;;;;;;;;;;21.30;61.20;;;;;;469027;253;1116;-46
2021/06/29 11:01:19;;;;;;;;;;;21.30;61.20;;;;;;468908;253;1507;-46
2021/06/29 11:03:20;;;;;;;;;;;21.30;61.20;;;;;;460762;257;1231;-46
2021/06/29 11:05:22;;;;;;;;;;;21.30;61.30;;;;;;469059;253;1234;-46
2021/06/29 11:07:23;;;;;;;;;;;21.30;61.30;;;;;;469069;253;1379;-46
2021/06/29 11:09:24;;;;;;;;;;;21.30;61.20;;;;;;460855;257;1086;-46
2021/06/29 11:11:26;;;;;;;;;;;21.30;61.20;;;;;;468956;253;1337;-46
2021/06/29 11:13:27;;;;;;;;;;;21.30;61.20;;;;;;468750;253;2187;-46
2021/06/29 11:15:28;;;;;;;;;;;21.20;61.20;;;;;;460691;257;1445;-46
2021/06/29 11:17:30;;;;;;;;;;;21.30;61.20;;;;;;468766;253;1176;-46
2021/06/29 11:19:31;;;;;;;;;;;21.30;61.20;;;;;;468782;253;1110;-46
2021/06/29 11:21:34;;;;;;;;;;;21.30;61.20;;;;;;460667;257;1215;-46
2021/06/29 11:23:34;;;;;;;;;;;21.30;61.30;;;;;;469061;253;2179;-46
2021/06/29 11:25:35;;;;;;;;;;;21.30;61.20;;;;;;468913;253;1092;-46
2021/06/29 11:27:37;;;;;;;;;;;21.20;61.20;;;;;;460736;257;1171;-46
2021/06/29 11:29:38;;;;;;;;;;;21.30;61.30;;;;;;468888;253;1101;-46
2021/06/29 11:31:40;;;;;;;;;;;21.30;61.30;;;;;;468824;253;1357;-46
2021/06/29 11:33:41;;;;;;;;;;;21.30;61.30;;;;;;460521;258;2184;-46
2021/06/29 11:35:42;;;;;;;;;;;21.30;61.20;;;;;;468733;253;1576;-46
2021/06/29 11:37:43;;;;;;;;;;;21.30;61.20;;;;;;468877;253;1308;-46
2021/06/29 11:39:46;;;;;;;;;;;21.30;61.20;;;;;;460746;258;1194;-46
2021/06/29 11:41:46;;;;;;;;;;;21.30;61.30;;;;;;468904;253;2020;-46
2021/06/29 11:43:48;;;;;;;;;;;21.30;61.20;;;;;;469042;253;1040;-46
2021/06/29 11:45:49;;;;;;;;;;;21.30;61.20;;;;;;460631;257;1510;-46
2021/06/29 11:47:50;;;;;;;;;;;21.30;61.20;;;;;;468672;253;1160;-46
2021/06/29 11:49:52;;;;;;;;;;;21.30;61.20;;;;;;468590;253;1181;-46
2021/06/29 11:51:53;;;;;;;;;;;21.30;61.20;;;;;;460573;257;1138;-46
2021/06/29 11:53:54;;;;;;;;;;;21.30;61.20;;;;;;468700;253;2199;-46
2021/06/29 11:55:56;;;;;;;;;;;21.30;61.30;;;;;;468434;253;1126;-46
2021/06/29 11:57:57;;;;;;;;;;;21.30;61.30;;;;;;460664;257;1082;-46
2021/06/29 11:59:58;;;;;;;;;;;21.30;61.40;;;;;;468794;253;1137;-46